createdAt,value
2019-04-06T00:00:35.989Z,71.53
2019-04-06T00:01:36.001Z,71.73
2019-04-06T00:02:36.109Z,71.53
2019-04-06T00:03:36.014Z,71.73
2019-04-06T00:04:35.966Z,71.94
2019-04-06T00:05:35.937Z,71.84
2019-04-06T00:06:35.957Z,71.84
2019-04-06T00:07:35.931Z,71.43
2019-04-06T00:08:35.911Z,71.46
2019-04-06T00:09:35.894Z,71.63
2019-04-06T00:10:35.883Z,71.33
2019-04-06T00:11:35.873Z,71.33
2019-04-06T00:12:35.880Z,71.53
2019-04-06T00:13:36.087Z,71.26
2019-04-06T00:14:35.862Z,71.06
2019-04-06T00:15:35.890Z,71.26
2019-04-06T00:16:35.858Z,70.95
2019-04-06T00:17:35.840Z,70.95
2019-04-06T00:18:35.840Z,71.06
2019-04-06T00:19:35.843Z,70.85
2019-04-06T00:20:35.826Z,71.06
2019-04-06T00:21:35.804Z,70.95
2019-04-06T00:22:35.761Z,71.06
2019-04-06T00:23:35.756Z,71.15
2019-04-06T00:24:35.749Z,71.06
2019-04-06T00:25:43.732Z,71.15
2019-04-06T00:26:36.716Z,71.06
2019-04-06T00:27:35.718Z,71.06
2019-04-06T00:28:35.717Z,71.15
2019-04-06T00:29:35.783Z,71.36
2019-04-06T00:30:35.681Z,71.36
2019-04-06T00:31:35.683Z,71.91
2019-04-06T00:32:35.657Z,71.39
2019-04-06T00:33:35.668Z,71.19
2019-04-06T00:34:35.667Z,70.89
2019-04-06T00:35:35.629Z,70.78
2019-04-06T00:36:35.631Z,70.98
2019-04-06T00:37:35.599Z,70.98
2019-04-06T00:38:35.584Z,71.09
2019-04-06T00:39:35.581Z,70.68
2019-04-06T00:40:35.595Z,71.09
2019-04-06T00:41:35.559Z,70.65
2019-04-06T00:42:35.550Z,70.68
2019-04-06T00:43:35.534Z,70.68
2019-04-06T00:44:35.523Z,70.57
2019-04-06T00:45:35.536Z,70.57
2019-04-06T00:46:35.505Z,70.68
2019-04-06T00:47:35.496Z,70.78
2019-04-06T00:48:35.484Z,70.68
2019-04-06T00:49:35.469Z,70.57
2019-04-06T00:50:35.490Z,70.89
2019-04-06T00:51:35.458Z,70.78
2019-04-06T00:52:35.436Z,70.68
2019-04-06T00:53:35.438Z,70.78
2019-04-06T00:54:35.424Z,70.89
2019-04-06T00:55:35.414Z,70.68
2019-04-06T00:56:35.419Z,70.68
2019-04-06T00:57:35.383Z,70.17
2019-04-06T00:58:35.417Z,70.37
2019-04-06T00:59:35.383Z,70.37
2019-04-06T01:00:35.380Z,70.37
2019-04-06T01:01:35.377Z,70.07
2019-04-06T01:02:35.332Z,69.86
2019-04-06T01:03:35.321Z,69.86
2019-04-06T01:04:35.310Z,69.96
2019-04-06T01:05:35.306Z,69.86
2019-04-06T01:06:35.299Z,69.86
2019-04-06T01:07:35.308Z,69.76
2019-04-06T01:08:35.278Z,69.66
2019-04-06T01:09:35.254Z,69.35
2019-04-06T01:10:35.245Z,69.35
2019-04-06T01:11:35.243Z,69.35
2019-04-06T01:12:35.260Z,69.35
2019-04-06T01:13:35.320Z,69.56
2019-04-06T01:14:35.219Z,69.35
2019-04-06T01:15:35.199Z,69.25
2019-04-06T01:16:35.237Z,69.35
2019-04-06T01:17:35.179Z,69.35
2019-04-06T01:18:35.203Z,69.25
2019-04-06T01:19:35.158Z,68.95
2019-04-06T01:20:35.150Z,69.05
2019-04-06T01:21:35.134Z,68.95
2019-04-06T01:22:35.119Z,69.05
2019-04-06T01:23:35.114Z,68.95
2019-04-06T01:24:35.122Z,68.84
2019-04-06T01:25:35.173Z,68.74
2019-04-06T01:26:35.106Z,69.25
2019-04-06T01:27:35.079Z,68.88
2019-04-06T01:28:35.081Z,68.88
2019-04-06T01:29:35.046Z,68.88
2019-04-06T01:30:35.038Z,69.18
2019-04-06T01:31:35.144Z,68.77
2019-04-06T01:32:35.041Z,68.95
2019-04-06T01:33:35.001Z,68.98
2019-04-06T01:34:34.994Z,68.84
2019-04-06T01:35:35.097Z,68.88
2019-04-06T01:36:34.972Z,68.88
2019-04-06T01:37:34.987Z,68.77
2019-04-06T01:38:34.981Z,69.08
2019-04-06T01:39:34.955Z,69.08
2019-04-06T01:40:34.946Z,68.98
2019-04-06T01:41:34.922Z,69.08
2019-04-06T01:42:34.937Z,68.88
2019-04-06T01:43:34.895Z,68.98
2019-04-06T01:44:34.885Z,68.88
2019-04-06T01:45:34.887Z,69.08
2019-04-06T01:46:34.878Z,68.88
2019-04-06T01:47:34.855Z,68.98
2019-04-06T01:48:34.862Z,69.01
2019-04-06T01:49:34.840Z,69.08
2019-04-06T01:50:34.889Z,69.18
2019-04-06T01:51:34.827Z,69.49
2019-04-06T01:52:34.808Z,69.32
2019-04-06T01:53:34.809Z,69.52
2019-04-06T01:54:34.780Z,69.21
2019-04-06T01:55:34.768Z,69.32
2019-04-06T01:56:34.774Z,69.62
2019-04-06T01:57:34.755Z,69.42
2019-04-06T01:58:34.767Z,69.52
2019-04-06T01:59:34.731Z,69.32
2019-04-06T02:00:34.758Z,69.73
2019-04-06T02:01:34.706Z,69.73
2019-04-06T02:02:34.848Z,69.76
2019-04-06T02:03:34.694Z,69.93
2019-04-06T02:04:34.683Z,70.06
2019-04-06T02:05:34.697Z,70.06
2019-04-06T02:06:34.654Z,69.73
2019-04-06T02:07:34.668Z,70.17
2019-04-06T02:08:34.633Z,70.23
2019-04-06T02:09:34.644Z,70.17
2019-04-06T02:10:34.618Z,70.27
2019-04-06T02:11:34.623Z,70.27
2019-04-06T02:12:34.592Z,70.47
2019-04-06T02:13:34.597Z,70.27
2019-04-06T02:14:34.580Z,70.68
2019-04-06T02:15:34.603Z,70.68
2019-04-06T02:16:34.549Z,70.47
2019-04-06T02:17:34.560Z,70.78
2019-04-06T02:18:34.533Z,70.61
2019-04-06T02:19:34.536Z,70.61
2019-04-06T02:20:34.506Z,70.88
2019-04-06T02:21:34.494Z,70.61
2019-04-06T02:22:34.484Z,70.78
2019-04-06T02:23:34.479Z,70.57
2019-04-06T02:24:34.463Z,70.88
2019-04-06T02:25:34.464Z,70.92
2019-04-06T02:26:34.435Z,71.01
2019-04-06T02:27:34.424Z,70.78
2019-04-06T02:28:34.423Z,70.98
2019-04-06T02:29:34.412Z,70.92
2019-04-06T02:30:34.586Z,71.12
2019-04-06T02:31:34.391Z,70.92
2019-04-06T02:32:34.385Z,70.92
2019-04-06T02:33:34.386Z,70.78
2019-04-06T02:34:34.352Z,70.81
2019-04-06T02:35:34.353Z,70.57
2019-04-06T02:36:34.358Z,70.68
2019-04-06T02:37:34.372Z,70.71
2019-04-06T02:38:34.312Z,70.71
2019-04-06T02:39:34.301Z,70.78
2019-04-06T02:40:34.319Z,70.71
2019-04-06T02:41:34.434Z,70.47
2019-04-06T02:42:34.276Z,70.71
2019-04-06T02:43:34.265Z,70.37
2019-04-06T02:44:34.256Z,70.81
2019-04-06T02:45:34.235Z,71.01
2019-04-06T02:46:34.298Z,70.92
2019-04-06T02:47:34.211Z,71.01
2019-04-06T02:48:34.207Z,71.01
2019-04-06T02:49:34.200Z,71.01
2019-04-06T02:50:34.229Z,71.33
2019-04-06T02:51:34.197Z,71.22
2019-04-06T02:52:34.178Z,71.22
2019-04-06T02:53:34.266Z,71.56
2019-04-06T02:54:34.369Z,71.46
2019-04-06T02:55:34.132Z,71.87
2019-04-06T02:56:45.599Z,71.46
2019-04-06T02:57:35.109Z,71.77
2019-04-06T02:58:34.094Z,72.07
2019-04-06T02:59:34.083Z,72.48
2019-04-06T03:00:34.073Z,72.58
2019-04-06T03:01:34.088Z,72.41
2019-04-06T03:02:34.094Z,72.92
2019-04-06T03:03:34.046Z,72.72
2019-04-06T03:04:34.034Z,72.52
2019-04-06T03:05:34.043Z,72.72
2019-04-06T03:06:34.011Z,72.28
2019-04-06T03:07:34.003Z,72.00
2019-04-06T03:08:34.016Z,72.28
2019-04-06T03:09:33.987Z,72.58
2019-04-06T03:10:33.975Z,72.38
2019-04-06T03:11:33.957Z,72.17
2019-04-06T03:12:33.944Z,72.00
2019-04-06T03:13:33.965Z,72.11
2019-04-06T03:14:33.934Z,71.80
2019-04-06T03:15:33.925Z,72.00
2019-04-06T03:16:33.912Z,71.66
2019-04-06T03:17:33.891Z,72.21
2019-04-06T03:18:33.883Z,71.70
2019-04-06T03:19:33.901Z,71.49
2019-04-06T03:20:33.945Z,71.59
2019-04-06T03:21:33.851Z,71.90
2019-04-06T03:22:33.845Z,71.59
2019-04-06T03:23:33.826Z,71.49
2019-04-06T03:24:33.818Z,71.15
2019-04-06T03:25:33.853Z,71.15
2019-04-06T03:26:33.824Z,71.25
2019-04-06T03:27:33.792Z,71.15
2019-04-06T03:28:33.786Z,71.15
2019-04-06T03:29:33.769Z,71.25
2019-04-06T03:30:33.765Z,71.36
2019-04-06T03:31:33.939Z,71.59
2019-04-06T03:32:33.729Z,71.59
2019-04-06T03:33:33.725Z,71.59
2019-04-06T03:34:33.761Z,71.90
2019-04-06T03:35:33.719Z,71.90
2019-04-06T03:36:33.715Z,71.80
2019-04-06T03:37:33.758Z,72.11
2019-04-06T03:38:33.781Z,72.00
2019-04-06T03:39:33.665Z,72.31
2019-04-06T03:40:33.649Z,72.62
2019-04-06T03:41:33.637Z,72.00
2019-04-06T03:42:33.650Z,72.11
2019-04-06T03:43:33.612Z,72.11
2019-04-06T03:44:33.609Z,72.00
2019-04-06T03:45:33.658Z,71.80
2019-04-06T03:46:33.708Z,71.39
2019-04-06T03:47:33.577Z,71.70
2019-04-06T03:48:33.599Z,71.49
2019-04-06T03:49:33.537Z,71.70
2019-04-06T03:50:33.534Z,71.49
2019-04-06T03:51:33.518Z,71.59
2019-04-06T03:52:33.537Z,71.59
2019-04-06T03:53:33.501Z,71.59
2019-04-06T03:54:33.511Z,71.59
2019-04-06T03:55:33.558Z,71.39
2019-04-06T03:56:33.462Z,71.29
2019-04-06T03:57:33.462Z,71.29
2019-04-06T03:58:33.523Z,71.19
2019-04-06T03:59:33.466Z,71.39
2019-04-06T04:00:33.425Z,71.39
2019-04-06T04:01:33.419Z,71.08
2019-04-06T04:02:33.416Z,70.98
2019-04-06T04:03:33.386Z,70.98
2019-04-06T04:04:33.376Z,70.78
2019-04-06T04:05:33.395Z,70.78
2019-04-06T04:06:33.489Z,70.67
2019-04-06T04:07:33.371Z,70.78
2019-04-06T04:08:33.340Z,70.88
2019-04-06T04:09:33.322Z,70.81
2019-04-06T04:10:33.526Z,70.88
2019-04-06T04:11:33.319Z,70.78
2019-04-06T04:12:33.319Z,70.81
2019-04-06T04:13:33.282Z,70.47
2019-04-06T04:14:33.273Z,70.57
2019-04-06T04:15:33.652Z,70.47
2019-04-06T04:16:33.277Z,70.71
2019-04-06T04:17:33.261Z,70.67
2019-04-06T04:18:33.339Z,70.78
2019-04-06T04:19:33.265Z,70.71
2019-04-06T04:20:33.212Z,70.88
2019-04-06T04:21:33.198Z,70.98
2019-04-06T04:22:34.677Z,70.78
2019-04-06T04:23:33.244Z,70.67
2019-04-06T04:24:33.165Z,70.67
2019-04-06T04:25:33.173Z,70.57
2019-04-06T04:26:33.155Z,70.67
2019-04-06T04:27:33.197Z,70.78
2019-04-06T04:28:33.129Z,70.57
2019-04-06T04:29:33.123Z,70.67
2019-04-06T04:30:34.555Z,70.98
2019-04-06T04:31:33.114Z,70.88
2019-04-06T04:32:33.203Z,70.78
2019-04-06T04:33:33.103Z,70.78
2019-04-06T04:34:33.056Z,70.78
2019-04-06T04:35:33.062Z,70.67
2019-04-06T04:36:33.058Z,70.67
2019-04-06T04:37:33.196Z,70.26
2019-04-06T04:38:33.026Z,70.16
2019-04-06T04:39:33.043Z,70.37
2019-04-06T04:40:33.271Z,70.26
2019-04-06T04:41:32.986Z,69.96
2019-04-06T04:42:32.973Z,69.85
2019-04-06T04:43:32.964Z,69.85
2019-04-06T04:44:32.954Z,69.85
2019-04-06T04:45:32.956Z,69.55
2019-04-06T04:46:33.050Z,69.62
2019-04-06T04:47:32.918Z,69.75
2019-04-06T04:48:32.913Z,69.62
2019-04-06T04:49:32.905Z,69.45
2019-04-06T04:50:32.912Z,69.62
2019-04-06T04:51:32.896Z,69.52
2019-04-06T04:52:32.997Z,69.31
2019-04-06T04:53:32.896Z,69.52
2019-04-06T04:54:32.858Z,69.42
2019-04-06T04:55:32.842Z,69.31
2019-04-06T04:56:32.998Z,69.52
2019-04-06T04:57:40.035Z,69.31
2019-04-06T04:58:33.808Z,69.31
2019-04-06T04:59:32.792Z,69.21
2019-04-06T05:00:32.777Z,69.11
2019-04-06T05:01:32.772Z,69.42
2019-04-06T05:02:32.789Z,69.21
2019-04-06T05:03:32.756Z,69.11
2019-04-06T05:04:32.848Z,68.80
2019-04-06T05:05:32.753Z,68.46
2019-04-06T05:06:32.711Z,68.36
2019-04-06T05:07:32.711Z,68.36
2019-04-06T05:08:32.812Z,67.95
2019-04-06T05:09:32.686Z,68.05
2019-04-06T05:10:32.726Z,67.75
2019-04-06T05:11:32.686Z,67.95
2019-04-06T05:12:32.658Z,67.85
2019-04-06T05:13:32.637Z,68.16
2019-04-06T05:14:32.655Z,67.95
2019-04-06T05:15:32.624Z,67.61
2019-04-06T05:16:32.609Z,67.51
2019-04-06T05:17:32.713Z,66.36
2019-04-06T05:18:32.586Z,66.12
2019-04-06T05:19:32.576Z,65.68
2019-04-06T05:20:32.586Z,65.07
2019-04-06T05:21:32.559Z,65.17
2019-04-06T05:22:32.568Z,63.75
2019-04-06T05:23:32.535Z,64.12
2019-04-06T05:24:32.546Z,64.12
2019-04-06T05:25:32.552Z,63.92
2019-04-06T05:26:37.798Z,64.32
2019-04-06T05:27:33.512Z,64.09
2019-04-06T05:28:32.477Z,63.89
2019-04-06T05:29:33.343Z,63.48
2019-04-06T05:30:32.465Z,63.79
2019-04-06T05:31:32.447Z,62.84
2019-04-06T05:32:32.435Z,62.74
2019-04-06T05:33:32.466Z,62.43
2019-04-06T05:34:32.418Z,62.40
2019-04-06T05:35:32.427Z,61.25
2019-04-06T05:36:32.399Z,61.36
2019-04-06T05:37:32.387Z,60.54
2019-04-06T05:38:32.369Z,60.54
2019-04-06T05:39:32.357Z,60.54
2019-04-06T05:40:32.367Z,60.11
2019-04-06T05:41:32.343Z,60.00
2019-04-06T05:42:32.376Z,59.91
2019-04-06T05:43:32.332Z,59.88
2019-04-06T05:44:32.313Z,59.27
2019-04-06T05:45:32.640Z,58.96
2019-04-06T05:46:32.287Z,58.86
2019-04-06T05:47:32.445Z,59.27
2019-04-06T05:48:32.271Z,59.16
2019-04-06T05:49:32.266Z,58.73
2019-04-06T05:50:32.241Z,58.12
2019-04-06T05:51:32.257Z,57.81
2019-04-06T05:52:32.221Z,58.65
2019-04-06T05:53:32.249Z,58.35
2019-04-06T05:54:32.217Z,59.27
2019-04-06T05:55:32.195Z,58.53
2019-04-06T05:56:32.209Z,58.02
2019-04-06T05:57:32.826Z,57.61
2019-04-06T05:58:32.176Z,57.48
2019-04-06T05:59:32.146Z,56.77
2019-04-06T06:00:32.129Z,57.05
2019-04-06T06:01:32.233Z,55.80
2019-04-06T06:02:32.372Z,55.68
2019-04-06T06:03:32.101Z,54.53
2019-04-06T06:04:32.096Z,54.33
2019-04-06T06:05:32.090Z,54.74
2019-04-06T06:06:32.074Z,54.53
2019-04-06T06:07:32.099Z,56.01
2019-04-06T06:08:32.105Z,56.29
2019-04-06T06:09:32.039Z,56.11
2019-04-06T06:10:32.045Z,55.68
2019-04-06T06:11:32.014Z,56.11
2019-04-06T06:12:32.020Z,55.78
2019-04-06T06:13:31.995Z,55.07
2019-04-06T06:14:32.033Z,54.53
2019-04-06T06:15:31.980Z,54.03
2019-04-06T06:16:31.966Z,54.33
2019-04-06T06:17:32.041Z,54.86
2019-04-06T06:18:31.943Z,54.74
2019-04-06T06:19:31.954Z,54.74
2019-04-06T06:20:31.923Z,54.00
2019-04-06T06:21:32.034Z,54.24
2019-04-06T06:22:31.897Z,54.11
2019-04-06T06:23:31.882Z,54.00
2019-04-06T06:24:34.608Z,53.67
2019-04-06T06:25:31.881Z,52.72
2019-04-06T06:26:31.863Z,53.25
2019-04-06T06:27:31.849Z,53.34
2019-04-06T06:28:31.838Z,52.74
2019-04-06T06:29:31.850Z,53.12
2019-04-06T06:30:31.918Z,52.21
2019-04-06T06:31:31.800Z,52.64
2019-04-06T06:32:31.793Z,53.34
2019-04-06T06:33:31.796Z,52.61
2019-04-06T06:34:31.778Z,51.48
2019-04-06T06:35:31.776Z,51.48
2019-04-06T06:36:31.747Z,51.03
2019-04-06T06:37:31.744Z,50.92
2019-04-06T06:38:31.730Z,51.15
2019-04-06T06:39:31.721Z,51.68
2019-04-06T06:40:31.741Z,51.76
2019-04-06T06:41:31.703Z,51.45
2019-04-06T06:42:31.684Z,51.65
2019-04-06T06:43:31.675Z,51.15
2019-04-06T06:44:31.667Z,51.15
2019-04-06T06:45:31.664Z,52.13
2019-04-06T06:46:31.691Z,53.58
2019-04-06T06:47:31.637Z,54.82
2019-04-06T06:48:31.628Z,54.61
2019-04-06T06:49:31.613Z,54.11
2019-04-06T06:50:31.605Z,54.24
2019-04-06T06:51:31.676Z,55.68
2019-04-06T06:52:31.582Z,55.68
2019-04-06T06:53:31.570Z,54.51
2019-04-06T06:54:31.553Z,53.25
2019-04-06T06:55:31.565Z,53.55
2019-04-06T06:56:31.555Z,54.53
2019-04-06T06:57:31.762Z,54.41
2019-04-06T06:58:31.521Z,52.39
2019-04-06T06:59:31.535Z,50.70
2019-04-06T07:00:31.684Z,49.41
2019-04-06T07:01:31.499Z,47.96
2019-04-06T07:02:31.472Z,48.96
2019-04-06T07:03:31.463Z,51.48
2019-04-06T07:04:31.448Z,51.05
2019-04-06T07:05:31.460Z,51.57
2019-04-06T07:06:31.454Z,54.31
2019-04-06T07:07:31.451Z,55.58
2019-04-06T07:08:31.510Z,56.21
2019-04-06T07:09:31.414Z,55.96
2019-04-06T07:10:31.388Z,52.16
2019-04-06T07:11:31.383Z,49.54
2019-04-06T07:12:31.409Z,47.53
2019-04-06T07:13:31.686Z,45.90
2019-04-06T07:14:31.347Z,45.90
2019-04-06T07:15:31.336Z,46.06
2019-04-06T07:16:31.328Z,45.03
2019-04-06T07:17:31.333Z,45.05
2019-04-06T07:18:31.308Z,45.45
2019-04-06T07:19:31.313Z,44.67
2019-04-06T07:20:31.528Z,45.67
2019-04-06T07:21:31.330Z,46.10
2019-04-06T07:22:31.260Z,45.59
2019-04-06T07:23:31.250Z,45.55
2019-04-06T07:24:31.258Z,45.03
2019-04-06T07:25:31.263Z,45.65
2019-04-06T07:26:31.301Z,44.53
2019-04-06T07:27:31.389Z,43.38
2019-04-06T07:28:37.549Z,43.16
2019-04-06T07:29:32.278Z,42.96
2019-04-06T07:30:31.175Z,42.49
2019-04-06T07:31:31.162Z,41.24
2019-04-06T07:32:31.379Z,39.91
2019-04-06T07:33:31.134Z,41.15
2019-04-06T07:34:31.130Z,40.61
2019-04-06T07:35:31.145Z,39.87
2019-04-06T07:36:31.103Z,38.98
2019-04-06T07:37:31.131Z,39.28
2019-04-06T07:38:31.090Z,39.06
2019-04-06T07:39:31.263Z,38.10
2019-04-06T07:40:31.093Z,36.77
2019-04-06T07:41:31.055Z,36.85
2019-04-06T07:42:31.047Z,36.14
2019-04-06T07:43:31.036Z,35.63
2019-04-06T07:44:31.031Z,35.42
2019-04-06T07:45:31.019Z,35.94
2019-04-06T07:46:31.022Z,35.92
2019-04-06T07:47:30.983Z,35.59
2019-04-06T07:48:31.049Z,34.89
2019-04-06T07:49:30.968Z,34.52
2019-04-06T07:50:31.613Z,36.02
2019-04-06T07:51:30.966Z,35.94
2019-04-06T07:52:31.016Z,35.94
2019-04-06T07:53:30.979Z,35.19
2019-04-06T07:54:30.912Z,34.34
2019-04-06T07:55:30.908Z,33.42
2019-04-06T07:56:31.755Z,33.00
2019-04-06T07:57:30.954Z,32.58
2019-04-06T07:58:31.321Z,31.16
2019-04-06T07:59:30.875Z,30.24
2019-04-06T08:00:30.857Z,30.43
2019-04-06T08:01:30.852Z,30.82
2019-04-06T08:02:30.900Z,30.13
2019-04-06T08:03:30.938Z,29.72
2019-04-06T08:04:30.873Z,29.74
2019-04-06T08:05:30.799Z,29.23
2019-04-06T08:06:30.788Z,28.72
2019-04-06T08:07:30.782Z,28.91
2019-04-06T08:08:30.789Z,29.20
2019-04-06T08:09:30.772Z,28.59
2019-04-06T08:10:30.755Z,29.38
2019-04-06T08:11:30.752Z,29.39
2019-04-06T08:12:30.732Z,28.59
2019-04-06T08:13:30.745Z,28.89
2019-04-06T08:14:30.708Z,28.69
2019-04-06T08:15:30.954Z,29.07
2019-04-06T08:16:30.687Z,29.09
2019-04-06T08:17:30.718Z,29.83
2019-04-06T08:18:30.686Z,29.95
2019-04-06T08:19:30.773Z,28.65
2019-04-06T08:20:30.639Z,28.83
2019-04-06T08:21:30.634Z,29.33
2019-04-06T08:22:30.622Z,29.61
2019-04-06T08:23:30.727Z,29.30
2019-04-06T08:24:30.624Z,28.78
2019-04-06T08:25:30.587Z,27.87
2019-04-06T08:26:30.694Z,27.86
2019-04-06T08:27:30.573Z,28.26
2019-04-06T08:28:30.601Z,28.08
2019-04-06T08:29:30.544Z,28.08
2019-04-06T08:30:30.725Z,27.86
2019-04-06T08:31:30.709Z,27.86
2019-04-06T08:32:30.520Z,28.75
2019-04-06T08:33:30.707Z,27.76
2019-04-06T08:34:30.518Z,28.26
2019-04-06T08:35:31.490Z,27.78
2019-04-06T08:36:30.501Z,28.00
2019-04-06T08:37:30.469Z,28.38
2019-04-06T08:38:30.458Z,28.20
2019-04-06T08:39:30.466Z,28.82
2019-04-06T08:40:30.436Z,28.53
2019-04-06T08:41:30.755Z,29.44
2019-04-06T08:42:30.422Z,28.76
2019-04-06T08:43:31.400Z,30.79
2019-04-06T08:44:30.392Z,30.68
2019-04-06T08:45:30.409Z,30.49
2019-04-06T08:46:30.381Z,30.87
2019-04-06T08:47:30.424Z,29.34
2019-04-06T08:48:30.457Z,28.41
2019-04-06T08:49:30.422Z,28.09
2019-04-06T08:50:30.355Z,27.92
2019-04-06T08:51:30.321Z,28.06
2019-04-06T08:52:30.313Z,28.97
2019-04-06T08:53:30.338Z,29.55
2019-04-06T08:54:30.301Z,28.74
2019-04-06T08:55:30.288Z,29.11
2019-04-06T08:56:30.280Z,28.11
2019-04-06T08:57:30.449Z,28.11
2019-04-06T08:58:30.252Z,28.35
2019-04-06T08:59:30.405Z,29.20
2019-04-06T09:00:30.239Z,29.68
2019-04-06T09:01:30.241Z,28.76
2019-04-06T09:02:30.212Z,29.02
2019-04-06T09:03:30.209Z,28.89
2019-04-06T09:04:30.195Z,27.17
2019-04-06T09:05:30.214Z,26.39
2019-04-06T09:06:30.183Z,27.15
2019-04-06T09:07:30.293Z,26.36
2019-04-06T09:08:30.161Z,27.47
2019-04-06T09:09:30.146Z,27.50
2019-04-06T09:10:30.155Z,28.80
2019-04-06T09:11:30.127Z,28.82
2019-04-06T09:12:30.185Z,27.99
2019-04-06T09:13:30.109Z,27.56
2019-04-06T09:14:30.101Z,27.14
2019-04-06T09:15:30.114Z,27.14
2019-04-06T09:16:30.077Z,26.52
2019-04-06T09:17:30.087Z,26.21
2019-04-06T09:18:30.063Z,26.09
2019-04-06T09:19:30.050Z,24.99
2019-04-06T09:20:30.089Z,24.88
2019-04-06T09:21:30.045Z,24.59
2019-04-06T09:22:30.016Z,24.41
2019-04-06T09:23:30.263Z,25.31
2019-04-06T09:24:30.123Z,24.74
2019-04-06T09:25:30.249Z,26.53
2019-04-06T09:26:30.009Z,27.14
2019-04-06T09:27:29.970Z,26.43
2019-04-06T09:28:29.975Z,26.52
2019-04-06T09:29:29.947Z,26.10
2019-04-06T09:30:29.934Z,25.01
2019-04-06T09:31:29.950Z,24.99
2019-04-06T09:32:29.927Z,25.59
2019-04-06T09:33:29.903Z,24.31
2019-04-06T09:34:31.162Z,25.02
2019-04-06T09:35:29.886Z,26.52
2019-04-06T09:36:29.910Z,26.52
2019-04-06T09:37:30.079Z,26.62
2019-04-06T09:38:29.871Z,26.21
2019-04-06T09:39:29.857Z,25.21
2019-04-06T09:40:30.293Z,24.99
2019-04-06T09:41:29.830Z,24.87
2019-04-06T09:42:29.836Z,23.79
2019-04-06T09:43:29.824Z,23.79
2019-04-06T09:44:29.801Z,23.98
2019-04-06T09:45:29.952Z,24.46
2019-04-06T09:46:29.788Z,23.48
2019-04-06T09:47:29.789Z,24.11
2019-04-06T09:48:29.771Z,26.24
2019-04-06T09:49:29.761Z,26.36
2019-04-06T09:50:29.967Z,26.25
2019-04-06T09:51:29.746Z,26.32
2019-04-06T09:52:29.949Z,26.20
2019-04-06T09:53:29.727Z,24.51
2019-04-06T09:54:29.715Z,25.60
2019-04-06T09:55:29.700Z,24.40
2019-04-06T09:56:29.694Z,24.21
2019-04-06T09:57:29.680Z,23.61
2019-04-06T09:58:29.826Z,24.75
2019-04-06T09:59:36.044Z,26.68
2019-04-06T10:00:30.724Z,27.30
2019-04-06T10:01:38.025Z,27.61
2019-04-06T10:02:30.631Z,28.11
2019-04-06T10:03:29.720Z,28.14
2019-04-06T10:04:29.619Z,28.20
2019-04-06T10:05:29.797Z,28.24
2019-04-06T10:06:32.120Z,28.16
2019-04-06T10:07:29.581Z,28.21
2019-04-06T10:08:29.624Z,27.87
2019-04-06T10:09:29.589Z,26.56
2019-04-06T10:10:29.577Z,26.45
2019-04-06T10:11:29.654Z,25.77
2019-04-06T10:12:29.542Z,26.07
2019-04-06T10:13:29.753Z,26.61
2019-04-06T10:14:29.559Z,28.76
2019-04-06T10:15:29.517Z,28.16
2019-04-06T10:16:29.496Z,27.93
2019-04-06T10:17:29.493Z,27.82
2019-04-06T10:18:29.485Z,27.69
2019-04-06T10:19:29.487Z,26.79
2019-04-06T10:20:29.639Z,26.59
2019-04-06T10:21:29.475Z,27.30
2019-04-06T10:22:29.525Z,27.40
2019-04-06T10:23:29.448Z,27.30
2019-04-06T10:24:29.635Z,27.62
2019-04-06T10:25:29.408Z,27.24
2019-04-06T10:26:29.588Z,27.98
2019-04-06T10:27:29.528Z,28.99
2019-04-06T10:28:29.394Z,29.60
2019-04-06T10:29:29.412Z,29.61
2019-04-06T10:30:29.368Z,29.11
2019-04-06T10:31:29.473Z,29.51
2019-04-06T10:32:29.352Z,29.30
2019-04-06T10:33:29.336Z,29.41
2019-04-06T10:34:29.323Z,29.51
2019-04-06T10:35:29.346Z,29.41
2019-04-06T10:36:31.408Z,29.94
2019-04-06T10:37:29.318Z,30.76
2019-04-06T10:38:29.378Z,31.09
2019-04-06T10:39:29.285Z,32.20
2019-04-06T10:40:29.526Z,31.29
2019-04-06T10:41:29.264Z,30.49
2019-04-06T10:42:29.620Z,30.99
2019-04-06T10:43:29.392Z,30.87
2019-04-06T10:44:29.233Z,30.96
2019-04-06T10:45:29.275Z,30.63
2019-04-06T10:46:29.299Z,30.12
2019-04-06T10:47:29.197Z,28.97
2019-04-06T10:48:29.262Z,28.37
2019-04-06T10:49:29.184Z,28.79
2019-04-06T10:50:29.172Z,29.63
2019-04-06T10:51:29.410Z,29.63
2019-04-06T10:52:29.148Z,30.56
2019-04-06T10:53:29.442Z,30.66
2019-04-06T10:54:29.138Z,28.75
2019-04-06T10:55:29.272Z,29.34
2019-04-06T10:56:29.132Z,29.50
2019-04-06T10:57:29.098Z,28.18
2019-04-06T10:58:29.093Z,29.19
2019-04-06T10:59:29.078Z,28.20
2019-04-06T11:00:29.069Z,28.73
2019-04-06T11:01:29.084Z,29.13
2019-04-06T11:02:29.132Z,29.51
2019-04-06T11:03:29.049Z,29.13
2019-04-06T11:04:29.044Z,28.99
2019-04-06T11:05:29.019Z,28.18
2019-04-06T11:06:29.030Z,28.45
2019-04-06T11:07:29.096Z,27.53
2019-04-06T11:08:28.999Z,26.90
2019-04-06T11:09:29.292Z,26.50
2019-04-06T11:10:28.976Z,26.53
2019-04-06T11:11:28.999Z,27.83
2019-04-06T11:12:28.958Z,27.86
2019-04-06T11:13:28.953Z,28.08
2019-04-06T11:14:28.971Z,28.69
2019-04-06T11:15:28.931Z,29.50
2019-04-06T11:16:29.215Z,29.60
2019-04-06T11:17:29.127Z,29.23
2019-04-06T11:18:28.902Z,29.72
2019-04-06T11:19:28.964Z,29.43
2019-04-06T11:20:28.881Z,29.13
2019-04-06T11:21:28.876Z,29.19
2019-04-06T11:22:28.939Z,28.51
2019-04-06T11:23:28.852Z,28.20
2019-04-06T11:24:28.840Z,28.28
2019-04-06T11:25:28.858Z,27.87
2019-04-06T11:26:28.830Z,27.96
2019-04-06T11:27:28.868Z,28.18
2019-04-06T11:28:28.812Z,28.89
2019-04-06T11:29:28.788Z,29.06
2019-04-06T11:30:29.065Z,28.37
2019-04-06T11:31:28.841Z,27.44
2019-04-06T11:32:28.781Z,27.03
2019-04-06T11:33:28.992Z,27.40
2019-04-06T11:34:28.752Z,26.61
2019-04-06T11:35:28.742Z,26.71
2019-04-06T11:36:28.729Z,26.39
2019-04-06T11:37:28.904Z,25.38
2019-04-06T11:38:28.821Z,25.18
2019-04-06T11:39:28.738Z,25.66
2019-04-06T11:40:28.693Z,26.50
2019-04-06T11:41:28.786Z,27.64
2019-04-06T11:42:28.678Z,28.66
2019-04-06T11:43:28.683Z,28.28
2019-04-06T11:44:28.847Z,28.69
2019-04-06T11:45:28.642Z,29.39
2019-04-06T11:46:28.791Z,28.97
2019-04-06T11:47:28.805Z,28.89
2019-04-06T11:48:28.668Z,28.78
2019-04-06T11:49:28.601Z,28.75
2019-04-06T11:50:28.595Z,28.16
2019-04-06T11:51:28.799Z,28.34
2019-04-06T11:52:28.573Z,27.83
2019-04-06T11:53:28.576Z,28.11
2019-04-06T11:54:28.575Z,27.28
2019-04-06T11:55:28.547Z,27.31
2019-04-06T11:56:28.533Z,27.78
2019-04-06T11:57:28.572Z,26.58
2019-04-06T11:58:28.521Z,26.51
2019-04-06T11:59:28.528Z,27.75
2019-04-06T12:00:28.502Z,28.24
2019-04-06T12:01:28.844Z,28.03
2019-04-06T12:02:28.476Z,27.96
2019-04-06T12:03:28.469Z,28.14
2019-04-06T12:04:28.476Z,28.42
2019-04-06T12:05:28.453Z,26.53
2019-04-06T12:06:28.443Z,28.17
2019-04-06T12:07:28.439Z,29.50
2019-04-06T12:08:28.425Z,28.97
2019-04-06T12:09:28.442Z,28.58
2019-04-06T12:10:28.414Z,28.70
2019-04-06T12:11:28.401Z,28.78
2019-04-06T12:12:28.384Z,27.87
2019-04-06T12:13:28.368Z,28.05
2019-04-06T12:14:28.381Z,27.62
2019-04-06T12:15:29.780Z,28.33
2019-04-06T12:16:28.341Z,27.22
2019-04-06T12:17:28.747Z,28.03
2019-04-06T12:18:28.351Z,28.14
2019-04-06T12:19:28.453Z,28.37
2019-04-06T12:20:28.510Z,28.28
2019-04-06T12:21:28.307Z,30.00
2019-04-06T12:22:28.444Z,29.61
2019-04-06T12:23:28.440Z,29.30
2019-04-06T12:24:28.268Z,27.89
2019-04-06T12:25:28.265Z,28.27
2019-04-06T12:26:28.273Z,28.18
2019-04-06T12:27:28.552Z,27.97
2019-04-06T12:28:28.224Z,27.28
2019-04-06T12:29:28.593Z,27.09
2019-04-06T12:30:37.441Z,28.18
2019-04-06T12:31:29.223Z,28.18
2019-04-06T12:32:28.213Z,28.18
2019-04-06T12:33:28.488Z,27.26
2019-04-06T12:34:28.168Z,27.24
2019-04-06T12:35:28.337Z,26.64
2019-04-06T12:36:28.488Z,26.56
2019-04-06T12:37:28.315Z,27.47
2019-04-06T12:38:28.143Z,27.47
2019-04-06T12:39:28.127Z,27.38
2019-04-06T12:40:28.118Z,27.79
2019-04-06T12:41:28.176Z,26.78
2019-04-06T12:42:28.519Z,26.65
2019-04-06T12:43:30.809Z,26.45
2019-04-06T12:44:28.085Z,27.35
2019-04-06T12:45:28.345Z,27.19
2019-04-06T12:46:28.108Z,27.94
2019-04-06T12:47:28.583Z,28.42
2019-04-06T12:48:28.074Z,28.11
2019-04-06T12:49:28.047Z,28.15
2019-04-06T12:50:28.051Z,28.23
2019-04-06T12:51:28.025Z,27.90
2019-04-06T12:52:28.055Z,27.70